sensor_id;sensor_type;location;lat;lon;timestamp;temperature;humidity
45137;DHT22;30894;51.740;19.498;2023-02-28T00:00:18;-3.80;99.90
45137;DHT22;30894;51.740;19.498;2023-02-28T00:03:05;-3.80;99.90
45137;DHT22;30894;51.740;19.498;2023-02-28T00:05:32;-4.00;99.90
45137;DHT22;30894;51.740;19.498;2023-02-28T00:07:58;-4.10;99.90
45137;DHT22;30894;51.740;19.498;2023-02-28T00:10:27;-4.30;99.90
45137;DHT22;30894;51.740;19.498;2023-02-28T00:12:55;-4.40;99.90
45137;DHT22;30894;51.740;19.498;2023-02-28T00:15:25;-4.50;99.90
45137;DHT22;30894;51.740;19.498;2023-02-28T00:17:51;-4.50;99.90
45137;DHT22;30894;51.740;19.498;2023-02-28T00:20:18;-4.70;99.90
45137;DHT22;30894;51.740;19.498;2023-02-28T00:22:47;-4.80;99.90
45137;DHT22;30894;51.740;19.498;2023-02-28T00:25:18;-4.80;99.90
45137;DHT22;30894;51.740;19.498;2023-02-28T00:27:45;-4.90;99.90
45137;DHT22;30894;51.740;19.498;2023-02-28T00:30:15;-4.90;99.90
45137;DHT22;30894;51.740;19.498;2023-02-28T00:32:43;-5.00;99.90
45137;DHT22;30894;51.740;19.498;2023-02-28T00:35:10;-5.00;99.90
45137;DHT22;30894;51.740;19.498;2023-02-28T00:37:37;-5.10;99.90
45137;DHT22;30894;51.740;19.498;2023-02-28T00:40:05;-5.10;99.90
45137;DHT22;30894;51.740;19.498;2023-02-28T00:42:33;-5.20;99.90
45137;DHT22;30894;51.740;19.498;2023-02-28T00:45:00;-5.20;99.90
45137;DHT22;30894;51.740;19.498;2023-02-28T00:47:26;-5.30;99.90
45137;DHT22;30894;51.740;19.498;2023-02-28T00:49:52;-5.30;99.90
45137;DHT22;30894;51.740;19.498;2023-02-28T00:52:18;-5.30;99.90
45137;DHT22;30894;51.740;19.498;2023-02-28T00:54:44;-5.30;99.90
45137;DHT22;30894;51.740;19.498;2023-02-28T00:57:10;-5.30;99.90
45137;DHT22;30894;51.740;19.498;2023-02-28T00:59:39;-5.30;99.90
45137;DHT22;30894;51.740;19.498;2023-02-28T01:02:05;-5.30;99.90
45137;DHT22;30894;51.740;19.498;2023-02-28T01:04:32;-5.50;99.90
45137;DHT22;30894;51.740;19.498;2023-02-28T01:06:58;-5.60;99.90
45137;DHT22;30894;51.740;19.498;2023-02-28T01:09:24;-5.60;99.90
45137;DHT22;30894;51.740;19.498;2023-02-28T01:11:50;-5.70;99.90
45137;DHT22;30894;51.740;19.498;2023-02-28T01:14:17;-5.90;99.90
45137;DHT22;30894;51.740;19.498;2023-02-28T01:16:43;-5.90;99.90
45137;DHT22;30894;51.740;19.498;2023-02-28T01:19:10;-6.00;99.90
45137;DHT22;30894;51.740;19.498;2023-02-28T01:21:36;-6.20;99.90
45137;DHT22;30894;51.740;19.498;2023-02-28T01:24:03;-6.30;99.90
45137;DHT22;30894;51.740;19.498;2023-02-28T01:26:30;-6.50;99.90
45137;DHT22;30894;51.740;19.498;2023-02-28T01:28:57;-6.60;99.90
45137;DHT22;30894;51.740;19.498;2023-02-28T01:31:23;-6.60;99.90
45137;DHT22;30894;51.740;19.498;2023-02-28T01:33:50;-6.70;99.90
45137;DHT22;30894;51.740;19.498;2023-02-28T01:36:19;-6.80;99.90
45137;DHT22;30894;51.740;19.498;2023-02-28T01:38:47;-6.80;99.90
45137;DHT22;30894;51.740;19.498;2023-02-28T01:41:26;-6.80;99.90
45137;DHT22;30894;51.740;19.498;2023-02-28T01:47:09;-7.00;99.90
45137;DHT22;30894;51.740;19.498;2023-02-28T01:49:36;-7.10;99.90
45137;DHT22;30894;51.740;19.498;2023-02-28T01:52:02;-7.20;99.90
45137;DHT22;30894;51.740;19.498;2023-02-28T01:54:31;-7.30;99.90
45137;DHT22;30894;51.740;19.498;2023-02-28T01:57:09;-7.30;99.90
45137;DHT22;30894;51.740;19.498;2023-02-28T01:59:47;-7.30;99.90
45137;DHT22;30894;51.740;19.498;2023-02-28T02:02:24;-7.30;99.90
45137;DHT22;30894;51.740;19.498;2023-02-28T02:05:01;-7.40;99.90
45137;DHT22;30894;51.740;19.498;2023-02-28T02:07:32;-7.30;99.90
45137;DHT22;30894;51.740;19.498;2023-02-28T02:10:11;-7.40;99.90
45137;DHT22;30894;51.740;19.498;2023-02-28T02:18:48;-7.40;99.90
45137;DHT22;30894;51.740;19.498;2023-02-28T02:27:10;-7.70;99.90
45137;DHT22;30894;51.740;19.498;2023-02-28T02:35:49;-7.70;99.90
45137;DHT22;30894;51.740;19.498;2023-02-28T02:38:49;-7.70;99.90
45137;DHT22;30894;51.740;19.498;2023-02-28T02:41:28;-7.70;99.90
45137;DHT22;30894;51.740;19.498;2023-02-28T02:44:21;-7.70;99.90
45137;DHT22;30894;51.740;19.498;2023-02-28T02:46:52;-7.80;99.90
45137;DHT22;30894;51.740;19.498;2023-02-28T02:49:28;-7.90;99.90
45137;DHT22;30894;51.740;19.498;2023-02-28T02:52:00;-8.00;99.90
45137;DHT22;30894;51.740;19.498;2023-02-28T02:54:34;-8.10;99.90
45137;DHT22;30894;51.740;19.498;2023-02-28T02:57:05;-8.10;99.90
45137;DHT22;30894;51.740;19.498;2023-02-28T02:59:37;-8.10;99.90
45137;DHT22;30894;51.740;19.498;2023-02-28T03:02:08;-8.10;99.90
45137;DHT22;30894;51.740;19.498;2023-02-28T03:04:43;-8.10;99.90
45137;DHT22;30894;51.740;19.498;2023-02-28T03:07:13;-8.20;99.90
45137;DHT22;30894;51.740;19.498;2023-02-28T03:09:40;-8.20;99.90
45137;DHT22;30894;51.740;19.498;2023-02-28T03:12:11;-8.30;99.90
45137;DHT22;30894;51.740;19.498;2023-02-28T03:15:05;-8.30;99.90
45137;DHT22;30894;51.740;19.498;2023-02-28T03:17:58;-8.30;99.90
45137;DHT22;30894;51.740;19.498;2023-02-28T03:20:41;-8.40;99.90
45137;DHT22;30894;51.740;19.498;2023-02-28T03:23:45;-8.50;99.90
45137;DHT22;30894;51.740;19.498;2023-02-28T03:26:23;-8.50;99.90
45137;DHT22;30894;51.740;19.498;2023-02-28T03:31:38;-8.60;99.90
45137;DHT22;30894;51.740;19.498;2023-02-28T03:34:34;-8.60;99.90
45137;DHT22;30894;51.740;19.498;2023-02-28T03:37:03;-8.60;99.90
45137;DHT22;30894;51.740;19.498;2023-02-28T03:39:42;-8.70;99.90
45137;DHT22;30894;51.740;19.498;2023-02-28T03:42:15;-8.70;99.90
45137;DHT22;30894;51.740;19.498;2023-02-28T03:44:59;-8.80;99.90
45137;DHT22;30894;51.740;19.498;2023-02-28T03:47:37;-8.80;99.90
45137;DHT22;30894;51.740;19.498;2023-02-28T03:50:32;-8.90;99.90
45137;DHT22;30894;51.740;19.498;2023-02-28T03:53:16;-8.90;99.90
45137;DHT22;30894;51.740;19.498;2023-02-28T03:55:59;-8.90;99.90
45137;DHT22;30894;51.740;19.498;2023-02-28T03:58:49;-9.00;99.90
45137;DHT22;30894;51.740;19.498;2023-02-28T04:02:03;-9.00;99.90
45137;DHT22;30894;51.740;19.498;2023-02-28T04:04:12;-9.10;99.90
45137;DHT22;30894;51.740;19.498;2023-02-28T04:06:39;-9.20;99.90
45137;DHT22;30894;51.740;19.498;2023-02-28T04:09:08;-9.20;99.90
45137;DHT22;30894;51.740;19.498;2023-02-28T04:11:41;-9.10;99.90
45137;DHT22;30894;51.740;19.498;2023-02-28T04:14:09;-9.10;99.90
45137;DHT22;30894;51.740;19.498;2023-02-28T04:16:38;-9.10;99.90
45137;DHT22;30894;51.740;19.498;2023-02-28T04:19:09;-9.20;99.90
45137;DHT22;30894;51.740;19.498;2023-02-28T04:21:41;-9.20;99.90
45137;DHT22;30894;51.740;19.498;2023-02-28T04:24:14;-9.30;99.90
45137;DHT22;30894;51.740;19.498;2023-02-28T04:26:46;-9.30;99.90
45137;DHT22;30894;51.740;19.498;2023-02-28T04:29:28;-9.30;99.90
45137;DHT22;30894;51.740;19.498;2023-02-28T04:31:55;-9.30;99.90
45137;DHT22;30894;51.740;19.498;2023-02-28T04:34:26;-9.30;99.90
45137;DHT22;30894;51.740;19.498;2023-02-28T04:36:53;-9.20;99.90
45137;DHT22;30894;51.740;19.498;2023-02-28T04:39:21;-9.20;99.90
45137;DHT22;30894;51.740;19.498;2023-02-28T04:41:48;-9.20;99.90
45137;DHT22;30894;51.740;19.498;2023-02-28T04:44:14;-9.20;99.90
45137;DHT22;30894;51.740;19.498;2023-02-28T04:46:42;-9.20;99.90
45137;DHT22;30894;51.740;19.498;2023-02-28T04:49:11;-9.20;99.90
45137;DHT22;30894;51.740;19.498;2023-02-28T04:51:37;-9.30;99.90
45137;DHT22;30894;51.740;19.498;2023-02-28T04:54:03;-9.30;99.90
45137;DHT22;30894;51.740;19.498;2023-02-28T04:56:29;-9.40;99.90
45137;DHT22;30894;51.740;19.498;2023-02-28T04:58:56;-9.50;99.90
45137;DHT22;30894;51.740;19.498;2023-02-28T05:03:59;-9.50;99.90
45137;DHT22;30894;51.740;19.498;2023-02-28T05:06:29;-9.50;99.90
45137;DHT22;30894;51.740;19.498;2023-02-28T05:08:57;-9.50;99.90
45137;DHT22;30894;51.740;19.498;2023-02-28T05:11:26;-9.50;99.90
45137;DHT22;30894;51.740;19.498;2023-02-28T05:14:02;-9.60;99.90
45137;DHT22;30894;51.740;19.498;2023-02-28T05:16:29;-9.70;99.90
45137;DHT22;30894;51.740;19.498;2023-02-28T05:18:56;-9.80;99.90
45137;DHT22;30894;51.740;19.498;2023-02-28T05:21:28;-9.80;99.90
45137;DHT22;30894;51.740;19.498;2023-02-28T05:24:00;-9.80;99.90
45137;DHT22;30894;51.740;19.498;2023-02-28T05:26:28;-9.90;99.90
45137;DHT22;30894;51.740;19.498;2023-02-28T05:28:56;-9.90;99.90
45137;DHT22;30894;51.740;19.498;2023-02-28T05:31:22;-9.90;99.90
45137;DHT22;30894;51.740;19.498;2023-02-28T05:33:48;-9.90;99.90
45137;DHT22;30894;51.740;19.498;2023-02-28T05:36:14;-9.90;99.90
45137;DHT22;30894;51.740;19.498;2023-02-28T05:38:41;-9.90;99.90
45137;DHT22;30894;51.740;19.498;2023-02-28T05:41:10;-9.90;99.90
45137;DHT22;30894;51.740;19.498;2023-02-28T05:43:37;-9.90;99.90
45137;DHT22;30894;51.740;19.498;2023-02-28T05:46:08;-9.80;99.90
45137;DHT22;30894;51.740;19.498;2023-02-28T05:48:39;-9.70;99.90
45137;DHT22;30894;51.740;19.498;2023-02-28T05:51:07;-9.70;99.90
45137;DHT22;30894;51.740;19.498;2023-02-28T05:53:34;-9.60;99.90
45137;DHT22;30894;51.740;19.498;2023-02-28T05:56:00;-9.50;99.90
45137;DHT22;30894;51.740;19.498;2023-02-28T05:58:27;-9.40;99.90
45137;DHT22;30894;51.740;19.498;2023-02-28T06:01:00;-9.30;99.90
45137;DHT22;30894;51.740;19.498;2023-02-28T06:03:27;-9.20;99.90
45137;DHT22;30894;51.740;19.498;2023-02-28T06:05:53;-9.20;99.90
45137;DHT22;30894;51.740;19.498;2023-02-28T06:08:20;-9.10;99.90
45137;DHT22;30894;51.740;19.498;2023-02-28T06:10:46;-9.10;99.90
45137;DHT22;30894;51.740;19.498;2023-02-28T06:13:13;-9.10;99.90
45137;DHT22;30894;51.740;19.498;2023-02-28T06:15:39;-9.10;99.90
45137;DHT22;30894;51.740;19.498;2023-02-28T06:18:05;-9.00;99.90
45137;DHT22;30894;51.740;19.498;2023-02-28T06:20:32;-8.90;99.90
45137;DHT22;30894;51.740;19.498;2023-02-28T06:22:59;-8.90;99.90
45137;DHT22;30894;51.740;19.498;2023-02-28T06:25:26;-8.90;99.90
45137;DHT22;30894;51.740;19.498;2023-02-28T06:27:54;-8.70;99.90
45137;DHT22;30894;51.740;19.498;2023-02-28T06:30:22;-8.40;99.90
45137;DHT22;30894;51.740;19.498;2023-02-28T06:32:57;-8.20;99.90
45137;DHT22;30894;51.740;19.498;2023-02-28T06:35:23;-7.90;99.90
45137;DHT22;30894;51.740;19.498;2023-02-28T06:37:49;-7.60;99.90
45137;DHT22;30894;51.740;19.498;2023-02-28T06:40:15;-7.30;99.90
45137;DHT22;30894;51.740;19.498;2023-02-28T06:42:42;-6.80;99.90
45137;DHT22;30894;51.740;19.498;2023-02-28T06:45:09;-6.40;99.90
45137;DHT22;30894;51.740;19.498;2023-02-28T06:47:37;-5.90;99.90
45137;DHT22;30894;51.740;19.498;2023-02-28T06:50:09;-5.40;99.90
45137;DHT22;30894;51.740;19.498;2023-02-28T06:52:37;-4.80;99.90
45137;DHT22;30894;51.740;19.498;2023-02-28T06:55:05;-4.30;99.90
45137;DHT22;30894;51.740;19.498;2023-02-28T06:57:34;-3.80;99.90
45137;DHT22;30894;51.740;19.498;2023-02-28T07:00:04;-3.30;99.90
45137;DHT22;30894;51.740;19.498;2023-02-28T07:02:35;-2.70;99.90
45137;DHT22;30894;51.740;19.498;2023-02-28T07:05:01;-2.20;99.90
45137;DHT22;30894;51.740;19.498;2023-02-28T07:07:28;-1.80;99.90
45137;DHT22;30894;51.740;19.498;2023-02-28T07:09:54;-1.30;99.90
45137;DHT22;30894;51.740;19.498;2023-02-28T07:12:20;-0.90;99.90
45137;DHT22;30894;51.740;19.498;2023-02-28T07:14:46;-0.50;99.90
45137;DHT22;30894;51.740;19.498;2023-02-28T07:17:13;-0.20;99.90
45137;DHT22;30894;51.740;19.498;2023-02-28T07:19:39;0.10;99.90
45137;DHT22;30894;51.740;19.498;2023-02-28T07:22:06;0.40;99.90
45137;DHT22;30894;51.740;19.498;2023-02-28T07:24:32;0.80;99.90
45137;DHT22;30894;51.740;19.498;2023-02-28T07:27:04;1.10;99.90
45137;DHT22;30894;51.740;19.498;2023-02-28T07:29:31;1.40;99.90
45137;DHT22;30894;51.740;19.498;2023-02-28T07:31:57;1.70;99.90
45137;DHT22;30894;51.740;19.498;2023-02-28T07:34:23;2.20;99.90
45137;DHT22;30894;51.740;19.498;2023-02-28T07:36:53;2.50;99.90
45137;DHT22;30894;51.740;19.498;2023-02-28T07:39:20;2.90;99.90
45137;DHT22;30894;51.740;19.498;2023-02-28T07:41:47;3.20;99.90
45137;DHT22;30894;51.740;19.498;2023-02-28T07:44:14;3.50;99.90
45137;DHT22;30894;51.740;19.498;2023-02-28T07:46:40;3.90;99.90
45137;DHT22;30894;51.740;19.498;2023-02-28T07:49:06;4.30;99.90
45137;DHT22;30894;51.740;19.498;2023-02-28T07:51:33;4.70;99.90
45137;DHT22;30894;51.740;19.498;2023-02-28T07:53:59;5.00;99.90
45137;DHT22;30894;51.740;19.498;2023-02-28T07:56:26;5.20;99.90
45137;DHT22;30894;51.740;19.498;2023-02-28T07:58:52;5.60;99.90
45137;DHT22;30894;51.740;19.498;2023-02-28T08:01:19;5.80;99.30
45137;DHT22;30894;51.740;19.498;2023-02-28T08:03:45;6.20;98.00
45137;DHT22;30894;51.740;19.498;2023-02-28T08:06:21;6.50;96.10
45137;DHT22;30894;51.740;19.498;2023-02-28T08:08:48;6.90;94.40
45137;DHT22;30894;51.740;19.498;2023-02-28T08:11:23;7.10;92.90
45137;DHT22;30894;51.740;19.498;2023-02-28T08:13:51;7.20;92.10
45137;DHT22;30894;51.740;19.498;2023-02-28T08:16:23;7.40;91.30
45137;DHT22;30894;51.740;19.498;2023-02-28T08:18:55;7.70;90.60
45137;DHT22;30894;51.740;19.498;2023-02-28T08:21:26;8.10;89.40
45137;DHT22;30894;51.740;19.498;2023-02-28T08:23:55;8.50;87.20
45137;DHT22;30894;51.740;19.498;2023-02-28T08:26:25;8.70;85.40
45137;DHT22;30894;51.740;19.498;2023-02-28T08:28:53;9.00;83.90
45137;DHT22;30894;51.740;19.498;2023-02-28T08:31:20;9.20;82.30
45137;DHT22;30894;51.740;19.498;2023-02-28T08:33:48;9.40;81.00
45137;DHT22;30894;51.740;19.498;2023-02-28T08:36:17;9.60;80.00
45137;DHT22;30894;51.740;19.498;2023-02-28T08:38:45;9.70;79.00
45137;DHT22;30894;51.740;19.498;2023-02-28T08:41:15;9.60;78.70
45137;DHT22;30894;51.740;19.498;2023-02-28T08:43:46;9.50;78.60
45137;DHT22;30894;51.740;19.498;2023-02-28T08:46:24;9.40;78.70
45137;DHT22;30894;51.740;19.498;2023-02-28T08:48:55;9.40;79.00
45137;DHT22;30894;51.740;19.498;2023-02-28T08:51:28;9.60;78.90
45137;DHT22;30894;51.740;19.498;2023-02-28T08:53:58;9.90;78.30
45137;DHT22;30894;51.740;19.498;2023-02-28T08:56:27;10.20;77.60
45137;DHT22;30894;51.740;19.498;2023-02-28T08:58:58;10.40;76.70
45137;DHT22;30894;51.740;19.498;2023-02-28T09:01:35;10.80;76.00
45137;DHT22;30894;51.740;19.498;2023-02-28T09:04:02;11.20;74.80
45137;DHT22;30894;51.740;19.498;2023-02-28T09:06:32;11.50;73.70
45137;DHT22;30894;51.740;19.498;2023-02-28T09:09:02;11.90;72.60
45137;DHT22;30894;51.740;19.498;2023-02-28T09:11:38;12.30;71.30
45137;DHT22;30894;51.740;19.498;2023-02-28T09:14:07;12.70;70.40
45137;DHT22;30894;51.740;19.498;2023-02-28T09:16:35;13.10;69.30
45137;DHT22;30894;51.740;19.498;2023-02-28T09:19:11;13.30;68.40
45137;DHT22;30894;51.740;19.498;2023-02-28T09:21:40;13.50;67.70
45137;DHT22;30894;51.740;19.498;2023-02-28T09:24:09;13.70;67.10
45137;DHT22;30894;51.740;19.498;2023-02-28T09:26:45;13.80;66.60
45137;DHT22;30894;51.740;19.498;2023-02-28T09:29:14;14.00;66.10
45137;DHT22;30894;51.740;19.498;2023-02-28T09:31:48;14.00;65.90
45137;DHT22;30894;51.740;19.498;2023-02-28T09:34:23;14.20;66.50
45137;DHT22;30894;51.740;19.498;2023-02-28T09:36:52;14.50;65.40
45137;DHT22;30894;51.740;19.498;2023-02-28T09:39:24;14.60;65.00
45137;DHT22;30894;51.740;19.498;2023-02-28T09:41:54;14.80;64.70
45137;DHT22;30894;51.740;19.498;2023-02-28T09:44:40;14.60;64.80
45137;DHT22;30894;51.740;19.498;2023-02-28T09:47:43;14.90;65.10
45137;DHT22;30894;51.740;19.498;2023-02-28T09:52:55;15.30;65.40
45137;DHT22;30894;51.740;19.498;2023-02-28T09:58:02;15.50;66.10
45137;DHT22;30894;51.740;19.498;2023-02-28T10:00:35;15.40;66.50
45137;DHT22;30894;51.740;19.498;2023-02-28T10:08:57;14.80;68.90
45137;DHT22;30894;51.740;19.498;2023-02-28T10:11:28;14.90;69.50
45137;DHT22;30894;51.740;19.498;2023-02-28T10:14:02;15.10;69.70
45137;DHT22;30894;51.740;19.498;2023-02-28T10:16:45;15.00;69.90
45137;DHT22;30894;51.740;19.498;2023-02-28T10:25:04;15.80;69.60
45137;DHT22;30894;51.740;19.498;2023-02-28T10:27:52;15.80;69.40
45137;DHT22;30894;51.740;19.498;2023-02-28T10:30:22;15.90;69.40
45137;DHT22;30894;51.740;19.498;2023-02-28T10:32:54;15.70;70.30
45137;DHT22;30894;51.740;19.498;2023-02-28T10:35:27;15.60;70.80
45137;DHT22;30894;51.740;19.498;2023-02-28T10:37:57;15.70;71.80
45137;DHT22;30894;51.740;19.498;2023-02-28T10:40:34;16.10;72.20
45137;DHT22;30894;51.740;19.498;2023-02-28T10:43:17;16.70;72.00
45137;DHT22;30894;51.740;19.498;2023-02-28T10:46:16;17.50;71.30
45137;DHT22;30894;51.740;19.498;2023-02-28T10:49:05;18.10;70.80
45137;DHT22;30894;51.740;19.498;2023-02-28T10:51:38;18.40;70.30
45137;DHT22;30894;51.740;19.498;2023-02-28T10:54:35;18.70;70.30
45137;DHT22;30894;51.740;19.498;2023-02-28T10:57:30;19.10;70.80
45137;DHT22;30894;51.740;19.498;2023-02-28T11:00:24;19.30;70.10
45137;DHT22;30894;51.740;19.498;2023-02-28T11:02:53;19.10;70.70
45137;DHT22;30894;51.740;19.498;2023-02-28T11:05:31;19.30;70.90
45137;DHT22;30894;51.740;19.498;2023-02-28T11:08:15;19.20;70.70
45137;DHT22;30894;51.740;19.498;2023-02-28T11:11:01;19.40;71.00
45137;DHT22;30894;51.740;19.498;2023-02-28T11:13:34;19.60;71.10
45137;DHT22;30894;51.740;19.498;2023-02-28T11:16:04;19.70;71.20
45137;DHT22;30894;51.740;19.498;2023-02-28T11:18:54;19.90;71.60
45137;DHT22;30894;51.740;19.498;2023-02-28T11:21:31;20.00;71.80
45137;DHT22;30894;51.740;19.498;2023-02-28T11:24:20;20.20;72.00
45137;DHT22;30894;51.740;19.498;2023-02-28T11:27:10;20.30;72.10
45137;DHT22;30894;51.740;19.498;2023-02-28T11:29:53;20.00;72.90
45137;DHT22;30894;51.740;19.498;2023-02-28T11:32:30;19.60;73.70
45137;DHT22;30894;51.740;19.498;2023-02-28T11:37:47;19.00;76.20
45137;DHT22;30894;51.740;19.498;2023-02-28T11:40:16;19.00;76.90
45137;DHT22;30894;51.740;19.498;2023-02-28T11:48:32;18.80;77.30
45137;DHT22;30894;51.740;19.498;2023-02-28T11:51:22;18.70;77.30
45137;DHT22;30894;51.740;19.498;2023-02-28T11:59:55;18.10;80.10
45137;DHT22;30894;51.740;19.498;2023-02-28T12:05:34;17.50;79.60
45137;DHT22;30894;51.740;19.498;2023-02-28T12:08:26;17.50;80.70
45137;DHT22;30894;51.740;19.498;2023-02-28T12:25:55;16.70;77.40
45137;DHT22;30894;51.740;19.498;2023-02-28T12:28:32;16.90;78.60
45137;DHT22;30894;51.740;19.498;2023-02-28T12:31:09;16.90;78.40
45137;DHT22;30894;51.740;19.498;2023-02-28T12:33:49;17.10;78.30
45137;DHT22;30894;51.740;19.498;2023-02-28T12:36:19;17.50;78.50
45137;DHT22;30894;51.740;19.498;2023-02-28T12:39:05;17.60;78.30
45137;DHT22;30894;51.740;19.498;2023-02-28T12:41:42;17.60;78.30
45137;DHT22;30894;51.740;19.498;2023-02-28T12:44:28;17.30;78.20
45137;DHT22;30894;51.740;19.498;2023-02-28T12:47:10;17.00;77.30
45137;DHT22;30894;51.740;19.498;2023-02-28T12:53:00;17.30;77.10
45137;DHT22;30894;51.740;19.498;2023-02-28T12:55:52;17.20;77.70
45137;DHT22;30894;51.740;19.498;2023-02-28T12:58:47;16.90;78.40
45137;DHT22;30894;51.740;19.498;2023-02-28T13:07:34;15.50;79.90
45137;DHT22;30894;51.740;19.498;2023-02-28T13:10:06;15.70;80.40
45137;DHT22;30894;51.740;19.498;2023-02-28T13:12:34;16.20;79.90
45137;DHT22;30894;51.740;19.498;2023-02-28T13:15:25;16.20;78.00
45137;DHT22;30894;51.740;19.498;2023-02-28T13:17:56;16.60;77.60
45137;DHT22;30894;51.740;19.498;2023-02-28T13:20:35;16.80;77.30
45137;DHT22;30894;51.740;19.498;2023-02-28T13:23:57;17.00;77.00
45137;DHT22;30894;51.740;19.498;2023-02-28T13:34:38;16.50;74.40
45137;DHT22;30894;51.740;19.498;2023-02-28T13:39:56;16.20;74.10
45137;DHT22;30894;51.740;19.498;2023-02-28T13:47:43;16.40;75.90
45137;DHT22;30894;51.740;19.498;2023-02-28T13:50:29;16.40;76.50
45137;DHT22;30894;51.740;19.498;2023-02-28T13:56:46;16.10;75.50
45137;DHT22;30894;51.740;19.498;2023-02-28T14:00:28;15.90;76.50
45137;DHT22;30894;51.740;19.498;2023-02-28T14:06:08;15.60;77.30
45137;DHT22;30894;51.740;19.498;2023-02-28T14:09:55;15.40;77.30
45137;DHT22;30894;51.740;19.498;2023-02-28T14:16:14;14.70;77.50
45137;DHT22;30894;51.740;19.498;2023-02-28T14:18:59;14.60;77.90
45137;DHT22;30894;51.740;19.498;2023-02-28T14:21:31;14.30;78.50
45137;DHT22;30894;51.740;19.498;2023-02-28T14:31:06;13.60;82.10
45137;DHT22;30894;51.740;19.498;2023-02-28T14:36:42;13.10;83.70
45137;DHT22;30894;51.740;19.498;2023-02-28T14:39:18;12.80;84.00
45137;DHT22;30894;51.740;19.498;2023-02-28T14:41:58;12.40;83.70
45137;DHT22;30894;51.740;19.498;2023-02-28T14:44:44;11.90;83.90
45137;DHT22;30894;51.740;19.498;2023-02-28T14:47:32;11.50;85.60
45137;DHT22;30894;51.740;19.498;2023-02-28T14:50:00;11.10;87.50
45137;DHT22;30894;51.740;19.498;2023-02-28T14:52:31;10.70;89.30
45137;DHT22;30894;51.740;19.498;2023-02-28T14:55:04;10.10;90.30
45137;DHT22;30894;51.740;19.498;2023-02-28T14:57:40;9.60;91.00
45137;DHT22;30894;51.740;19.498;2023-02-28T15:00:25;9.20;91.40
45137;DHT22;30894;51.740;19.498;2023-02-28T15:02:55;8.90;91.80
45137;DHT22;30894;51.740;19.498;2023-02-28T15:05:31;8.60;92.20
45137;DHT22;30894;51.740;19.498;2023-02-28T15:08:15;8.20;92.80
45137;DHT22;30894;51.740;19.498;2023-02-28T15:10:54;7.90;93.30
45137;DHT22;30894;51.740;19.498;2023-02-28T15:16:20;7.30;94.80
45137;DHT22;30894;51.740;19.498;2023-02-28T15:19:03;6.90;95.50
45137;DHT22;30894;51.740;19.498;2023-02-28T15:21:34;6.60;96.40
45137;DHT22;30894;51.740;19.498;2023-02-28T15:26:41;5.90;98.00
45137;DHT22;30894;51.740;19.498;2023-02-28T15:29:23;5.60;98.80
45137;DHT22;30894;51.740;19.498;2023-02-28T15:31:57;5.20;99.70
45137;DHT22;30894;51.740;19.498;2023-02-28T15:34:40;4.90;99.90
45137;DHT22;30894;51.740;19.498;2023-02-28T15:43:12;3.80;99.90
45137;DHT22;30894;51.740;19.498;2023-02-28T15:45:47;3.40;99.90
45137;DHT22;30894;51.740;19.498;2023-02-28T15:48:35;3.00;99.90
45137;DHT22;30894;51.740;19.498;2023-02-28T15:51:17;2.70;99.90
45137;DHT22;30894;51.740;19.498;2023-02-28T15:54:00;2.30;99.90
45137;DHT22;30894;51.740;19.498;2023-02-28T15:56:51;2.00;99.90
45137;DHT22;30894;51.740;19.498;2023-02-28T15:59:24;1.60;99.90
45137;DHT22;30894;51.740;19.498;2023-02-28T16:05:12;1.00;99.90
45137;DHT22;30894;51.740;19.498;2023-02-28T16:07:57;0.80;99.90
45137;DHT22;30894;51.740;19.498;2023-02-28T16:10:28;0.50;99.90
45137;DHT22;30894;51.740;19.498;2023-02-28T16:12:56;0.20;99.90
45137;DHT22;30894;51.740;19.498;2023-02-28T16:15:37;0.00;99.90
45137;DHT22;30894;51.740;19.498;2023-02-28T16:18:16;-0.20;99.90
45137;DHT22;30894;51.740;19.498;2023-02-28T16:20:50;-0.40;99.90
45137;DHT22;30894;51.740;19.498;2023-02-28T16:23:18;-0.70;99.90
45137;DHT22;30894;51.740;19.498;2023-02-28T16:25:47;-0.90;99.90
45137;DHT22;30894;51.740;19.498;2023-02-28T16:28:30;-1.10;99.90
45137;DHT22;30894;51.740;19.498;2023-02-28T16:31:10;-1.20;99.90
45137;DHT22;30894;51.740;19.498;2023-02-28T16:33:45;-1.50;99.90
45137;DHT22;30894;51.740;19.498;2023-02-28T16:36:20;-1.80;99.90
45137;DHT22;30894;51.740;19.498;2023-02-28T16:39:01;-1.90;99.90
45137;DHT22;30894;51.740;19.498;2023-02-28T16:41:28;-2.20;99.90
45137;DHT22;30894;51.740;19.498;2023-02-28T16:43:57;-2.40;99.90
45137;DHT22;30894;51.740;19.498;2023-02-28T16:46:36;-2.50;99.90
45137;DHT22;30894;51.740;19.498;2023-02-28T16:49:11;-2.60;99.90
45137;DHT22;30894;51.740;19.498;2023-02-28T16:51:38;-2.70;99.90
45137;DHT22;30894;51.740;19.498;2023-02-28T16:54:12;-2.80;99.90
45137;DHT22;30894;51.740;19.498;2023-02-28T16:56:40;-2.80;99.90
45137;DHT22;30894;51.740;19.498;2023-02-28T16:59:11;-2.90;99.90
45137;DHT22;30894;51.740;19.498;2023-02-28T17:01:40;-2.80;99.90
45137;DHT22;30894;51.740;19.498;2023-02-28T17:04:08;-2.80;99.90
45137;DHT22;30894;51.740;19.498;2023-02-28T17:06:42;-2.90;99.90
45137;DHT22;30894;51.740;19.498;2023-02-28T17:09:18;-2.90;99.90
45137;DHT22;30894;51.740;19.498;2023-02-28T17:11:46;-2.90;99.90
45137;DHT22;30894;51.740;19.498;2023-02-28T17:14:15;-2.90;99.90
45137;DHT22;30894;51.740;19.498;2023-02-28T17:16:49;-3.00;99.90
45137;DHT22;30894;51.740;19.498;2023-02-28T17:19:19;-3.00;99.90
45137;DHT22;30894;51.740;19.498;2023-02-28T17:21:45;-3.10;99.90
45137;DHT22;30894;51.740;19.498;2023-02-28T17:24:12;-3.10;99.90
45137;DHT22;30894;51.740;19.498;2023-02-28T17:26:56;-3.20;99.90
45137;DHT22;30894;51.740;19.498;2023-02-28T17:29:23;-3.20;99.90
45137;DHT22;30894;51.740;19.498;2023-02-28T17:32:00;-3.30;99.90
45137;DHT22;30894;51.740;19.498;2023-02-28T17:34:30;-3.30;99.90
45137;DHT22;30894;51.740;19.498;2023-02-28T17:36:58;-3.30;99.90
45137;DHT22;30894;51.740;19.498;2023-02-28T17:39:27;-3.30;99.90
45137;DHT22;30894;51.740;19.498;2023-02-28T17:41:54;-3.40;99.90
45137;DHT22;30894;51.740;19.498;2023-02-28T17:44:22;-3.50;99.90
45137;DHT22;30894;51.740;19.498;2023-02-28T17:46:54;-3.40;99.90
45137;DHT22;30894;51.740;19.498;2023-02-28T17:49:22;-3.50;99.90
45137;DHT22;30894;51.740;19.498;2023-02-28T17:51:49;-3.60;99.90
45137;DHT22;30894;51.740;19.498;2023-02-28T17:54:18;-3.70;99.90
45137;DHT22;30894;51.740;19.498;2023-02-28T17:56:46;-3.80;99.90
45137;DHT22;30894;51.740;19.498;2023-02-28T17:59:13;-3.90;99.90
45137;DHT22;30894;51.740;19.498;2023-02-28T18:01:43;-3.90;99.90
45137;DHT22;30894;51.740;19.498;2023-02-28T18:04:10;-4.00;99.90
45137;DHT22;30894;51.740;19.498;2023-02-28T18:06:40;-4.10;99.90
45137;DHT22;30894;51.740;19.498;2023-02-28T18:09:20;-4.20;99.90
45137;DHT22;30894;51.740;19.498;2023-02-28T18:11:51;-4.30;99.90